Time;durP1;ratioP1;P1;durP2;ratioP2;P2;SDS_P1;SDS_P2;PMS_P1;PMS_P2;Temp;Humidity;BMP_temperature;BMP_pressure;BME280_temperature;BME280_humidity;BME280_pressure;Samples;Min_cycle;Max_cycle;Signal;HPM_P1;HPM_P2
2021/08/27 00:01:13;;;;;;;5.10;1.88;;;15.90;95.40;;;;;;5014188;28;20364;-69
2021/08/27 00:03:39;;;;;;;4.18;1.35;;;16.00;95.30;;;;;;5014199;28;20399;-69
2021/08/27 00:06:04;;;;;;;3.78;1.60;;;15.90;95.40;;;;;;5014278;28;20037;-70
2021/08/27 00:08:30;;;;;;;9.40;1.75;;;15.90;95.30;;;;;;5014275;28;20041;-70
2021/08/27 00:10:55;;;;;;;4.97;1.50;;;15.90;95.50;;;;;;5014700;28;20074;-69
2021/08/27 00:13:21;;;;;;;6.72;1.38;;;15.90;95.50;;;;;;5014207;28;20034;-70
2021/08/27 00:15:46;;;;;;;7.75;1.92;;;15.90;95.50;;;;;;5014082;28;20121;-70
2021/08/27 00:18:12;;;;;;;7.28;1.60;;;15.70;95.50;;;;;;5013948;28;20038;-69
2021/08/27 00:20:38;;;;;;;5.90;1.52;;;15.80;95.60;;;;;;5013831;28;20097;-70
2021/08/27 00:23:05;;;;;;;6.40;1.83;;;15.90;95.60;;;;;;5014257;28;20025;-70
2021/08/27 00:25:30;;;;;;;4.75;1.52;;;15.90;95.30;;;;;;5013928;28;20026;-70
2021/08/27 00:27:56;;;;;;;5.05;1.63;;;15.90;95.20;;;;;;5013812;28;20037;-70
2021/08/27 00:30:21;;;;;;;3.45;1.23;;;15.90;95.20;;;;;;5013857;28;20026;-70
2021/08/27 00:32:47;;;;;;;7.80;1.33;;;15.90;95.10;;;;;;5013753;28;20034;-70
2021/08/27 00:35:13;;;;;;;5.75;1.48;;;15.90;95.00;;;;;;5014130;28;20026;-70
2021/08/27 00:37:39;;;;;;;5.03;1.55;;;15.90;95.10;;;;;;5013135;28;20133;-70
2021/08/27 00:40:05;;;;;;;2.65;1.27;;;15.70;95.00;;;;;;5013601;28;20054;-70
2021/08/27 00:42:31;;;;;;;4.32;1.40;;;15.80;95.00;;;;;;5013525;28;20040;-70
2021/08/27 00:44:56;;;;;;;5.57;1.70;;;15.70;95.00;;;;;;5013350;28;20110;-70
2021/08/27 00:47:22;;;;;;;5.35;1.52;;;15.80;95.00;;;;;;5013442;28;20334;-70
2021/08/27 00:49:48;;;;;;;3.53;1.52;;;15.80;94.90;;;;;;5013930;28;20137;-70
2021/08/27 00:52:14;;;;;;;6.90;1.50;;;15.70;95.00;;;;;;5013463;28;20104;-70
2021/08/27 00:54:45;;;;;;;8.60;1.88;;;15.80;95.30;;;;;;5013559;28;20034;-70
2021/08/27 00:57:10;;;;;;;5.90;1.60;;;15.80;95.00;;;;;;5013459;28;20045;-70
2021/08/27 00:59:37;;;;;;;3.75;1.60;;;15.70;95.00;;;;;;5013132;28;20112;-70
2021/08/27 01:02:03;;;;;;;2.58;1.25;;;15.70;95.00;;;;;;5013716;28;20087;-70
2021/08/27 01:04:30;;;;;;;5.70;1.58;;;15.70;95.10;;;;;;5013186;28;20053;-70
2021/08/27 01:06:58;;;;;;;3.05;1.58;;;15.70;95.00;;;;;;5013225;28;20080;-70
2021/08/27 01:10:01;;;;;;;8.25;2.75;;;15.70;95.00;;;;;;5013327;28;20140;-70
2021/08/27 01:12:43;;;;;;;7.47;1.70;;;15.70;95.10;;;;;;5013049;28;20491;-70
2021/08/27 01:15:24;;;;;;;3.92;1.67;;;15.60;95.20;;;;;;5011899;28;20057;-69
2021/08/27 01:17:55;;;;;;;11.00;1.63;;;15.40;95.40;;;;;;5013003;28;20037;-70
2021/08/27 01:20:26;;;;;;;4.82;1.95;;;15.50;95.40;;;;;;5013331;28;20084;-69
2021/08/27 01:23:19;;;;;;;4.60;1.63;;;15.40;95.50;;;;;;5013063;28;20034;-71
2021/08/27 01:25:52;;;;;;;4.25;1.60;;;15.40;95.60;;;;;;5013135;28;20034;-69
2021/08/27 01:28:21;;;;;;;6.43;1.48;;;15.50;95.60;;;;;;5013018;28;20131;-69
2021/08/27 01:31:07;;;;;;;5.50;1.77;;;15.50;95.50;;;;;;5011857;28;20034;-69
2021/08/27 01:33:35;;;;;;;4.82;1.67;;;15.40;95.50;;;;;;5012673;28;20113;-69
2021/08/27 01:36:03;;;;;;;9.20;1.95;;;15.30;95.60;;;;;;5012715;28;20448;-69
2021/08/27 01:38:33;;;;;;;7.50;1.73;;;15.40;95.70;;;;;;5012475;28;20037;-71
2021/08/27 01:41:01;;;;;;;4.10;1.45;;;15.50;95.60;;;;;;5013036;28;20041;-71
2021/08/27 01:43:29;;;;;;;5.38;1.60;;;15.50;95.60;;;;;;5012436;28;20479;-70
2021/08/27 01:45:58;;;;;;;4.93;1.40;;;15.40;95.70;;;;;;5012415;28;20065;-70
2021/08/27 01:48:27;;;;;;;9.80;1.70;;;15.40;95.70;;;;;;5011339;28;20026;-70
2021/08/27 01:50:54;;;;;;;5.32;1.48;;;15.50;95.60;;;;;;5011305;28;20037;-70
2021/08/27 01:53:24;;;;;;;10.73;2.20;;;15.50;95.60;;;;;;5012712;28;20030;-71
2021/08/27 01:55:50;;;;;;;4.10;1.83;;;15.40;95.60;;;;;;5012446;28;20054;-70
2021/08/27 01:58:16;;;;;;;5.97;1.33;;;15.40;95.70;;;;;;5011944;28;20052;-69
2021/08/27 02:00:42;;;;;;;5.68;1.40;;;15.40;95.70;;;;;;5029928;28;20115;-70
2021/08/27 02:03:09;;;;;;;8.30;1.73;;;15.50;95.70;;;;;;5031724;28;20491;-70
2021/08/27 02:05:35;;;;;;;4.72;1.60;;;15.40;95.80;;;;;;5031853;28;20179;-71
2021/08/27 02:08:02;;;;;;;4.53;1.75;;;15.30;95.80;;;;;;5032299;28;20021;-71
2021/08/27 02:10:29;;;;;;;4.13;1.23;;;15.40;95.80;;;;;;5031770;28;20037;-70
2021/08/27 02:12:55;;;;;;;2.05;1.23;;;15.40;95.90;;;;;;5031756;28;20104;-71
2021/08/27 02:15:24;;;;;;;7.07;1.75;;;15.40;95.80;;;;;;5031535;28;20132;-71
2021/08/27 02:17:50;;;;;;;8.70;1.60;;;15.40;95.80;;;;;;5031522;28;20037;-70
2021/08/27 02:20:16;;;;;;;5.93;1.60;;;15.50;95.70;;;;;;5031914;28;20024;-69
2021/08/27 02:22:45;;;;;;;5.15;1.55;;;15.50;95.70;;;;;;5031522;28;20029;-70
2021/08/27 02:25:15;;;;;;;7.13;1.63;;;15.40;95.80;;;;;;5031119;28;20034;-70
2021/08/27 02:27:43;;;;;;;10.93;1.60;;;15.40;95.80;;;;;;5031531;28;20491;-70
2021/08/27 02:30:09;;;;;;;11.98;2.08;;;15.40;95.90;;;;;;5031259;28;20042;-70
2021/08/27 02:32:37;;;;;;;7.95;1.50;;;15.30;96.00;;;;;;5030405;28;20021;-70
2021/08/27 02:35:06;;;;;;;7.60;2.00;;;15.30;95.90;;;;;;5030790;28;20443;-70
2021/08/27 02:37:35;;;;;;;3.72;1.67;;;15.30;96.00;;;;;;5031378;28;20037;-71
2021/08/27 02:40:02;;;;;;;6.03;1.52;;;15.20;96.10;;;;;;5031136;28;20066;-70
2021/08/27 02:42:30;;;;;;;5.55;1.63;;;15.20;96.10;;;;;;5031407;28;20029;-70
2021/08/27 02:44:56;;;;;;;3.75;1.17;;;15.20;96.30;;;;;;5030983;28;20110;-71
2021/08/27 02:47:22;;;;;;;3.40;1.55;;;15.30;96.10;;;;;;5031223;28;20131;-72
2021/08/27 02:49:48;;;;;;;5.60;1.65;;;15.40;96.00;;;;;;5031645;28;20021;-72
2021/08/27 02:52:24;;;;;;;5.68;1.70;;;15.30;96.00;;;;;;5031031;28;20040;-71
2021/08/27 02:54:50;;;;;;;9.38;1.17;;;15.40;95.90;;;;;;5031091;28;20125;-70
2021/08/27 02:57:17;;;;;;;12.05;2.20;;;15.30;96.00;;;;;;5030776;28;20034;-71
2021/08/27 02:59:43;;;;;;;3.72;1.20;;;15.30;96.20;;;;;;5031216;28;20443;-71
2021/08/27 03:02:15;;;;;;;8.80;1.73;;;15.20;96.30;;;;;;5031088;28;20041;-70
2021/08/27 03:05:16;;;;;;;4.55;1.42;;;15.30;96.20;;;;;;5031055;28;20098;-70
2021/08/27 03:07:49;;;;;;;7.88;1.90;;;15.30;96.10;;;;;;5030009;28;20450;-71
2021/08/27 03:10:25;;;;;;;6.10;1.60;;;15.20;96.30;;;;;;5030961;28;20040;-69
2021/08/27 03:13:03;;;;;;;8.05;1.50;;;15.20;96.30;;;;;;5030898;28;20037;-71
2021/08/27 03:15:37;;;;;;;10.70;1.90;;;15.20;96.30;;;;;;5030863;28;20036;-70
2021/08/27 03:18:08;;;;;;;10.77;1.95;;;15.20;96.30;;;;;;5030734;28;20030;-70
2021/08/27 03:20:50;;;;;;;7.88;1.90;;;15.20;96.30;;;;;;5029654;28;20030;-68
2021/08/27 03:23:17;;;;;;;21.58;1.88;;;15.10;96.40;;;;;;5031029;28;20108;-71
2021/08/27 03:25:46;;;;;;;3.97;1.77;;;15.00;96.50;;;;;;5030794;28;20080;-70
2021/08/27 03:28:18;;;;;;;8.07;1.65;;;15.10;96.40;;;;;;5030808;28;20026;-70
2021/08/27 03:30:47;;;;;;;3.92;1.65;;;15.10;96.50;;;;;;5030727;28;20068;-68
2021/08/27 03:33:13;;;;;;;9.07;1.48;;;15.00;96.50;;;;;;5030670;28;20030;-69
2021/08/27 03:35:39;;;;;;;7.45;2.03;;;15.10;96.50;;;;;;5030738;28;20471;-69
2021/08/27 03:38:06;;;;;;;8.50;2.03;;;15.00;96.50;;;;;;5031247;28;20017;-70
2021/08/27 03:40:33;;;;;;;5.38;1.67;;;15.20;96.40;;;;;;5029449;28;20030;-69
2021/08/27 03:43:00;;;;;;;8.40;2.55;;;15.20;96.60;;;;;;5029465;28;20030;-70
2021/08/27 03:45:27;;;;;;;4.68;1.98;;;15.10;96.30;;;;;;5030539;28;20106;-70
2021/08/27 03:47:53;;;;;;;7.97;1.58;;;15.10;96.40;;;;;;5029464;28;20033;-70
2021/08/27 03:50:22;;;;;;;4.70;1.60;;;15.00;96.60;;;;;;5030710;28;20028;-70
2021/08/27 03:52:50;;;;;;;5.25;1.50;;;15.10;96.60;;;;;;5030676;28;20456;-70
2021/08/27 03:55:17;;;;;;;5.25;1.63;;;15.10;96.50;;;;;;5030014;28;20033;-70
2021/08/27 03:57:45;;;;;;;6.38;1.98;;;15.00;96.50;;;;;;5030272;28;20041;-70
2021/08/27 04:00:11;;;;;;;;;;;15.10;96.50;;;;;;5030842;28;20026;-70
2021/08/27 04:02:38;;;;;;;6.38;1.52;;;15.00;96.50;;;;;;5030275;28;19905;-70
2021/08/27 04:05:14;;;;;;;5.53;1.90;;;14.90;96.60;;;;;;5030790;28;20061;-70
2021/08/27 04:07:41;;;;;;;5.18;1.52;;;15.00;96.60;;;;;;5029395;28;20053;-70
2021/08/27 04:10:07;;;;;;;7.57;1.67;;;15.00;96.60;;;;;;5030204;28;20113;-71
2021/08/27 04:12:35;;;;;;;8.65;1.85;;;15.10;96.50;;;;;;5029295;28;20026;-70
2021/08/27 04:15:01;;;;;;;11.70;2.05;;;15.10;96.40;;;;;;5033999;28;20030;-70
2021/08/27 04:17:26;;;;;;;7.88;1.88;;;15.10;96.40;;;;;;5033752;28;20338;-70
2021/08/27 04:19:52;;;;;;;6.72;1.63;;;15.10;96.30;;;;;;5034815;28;20027;-70
2021/08/27 04:22:18;;;;;;;6.35;1.65;;;15.00;96.50;;;;;;5033883;28;20113;-71
2021/08/27 04:24:43;;;;;;;5.80;1.58;;;15.10;96.50;;;;;;5033533;28;20068;-71
2021/08/27 04:27:09;;;;;;;6.03;1.75;;;15.10;96.40;;;;;;5033686;28;20103;-71
2021/08/27 04:29:34;;;;;;;4.22;1.45;;;15.00;96.50;;;;;;5033405;28;20033;-71
2021/08/27 04:32:01;;;;;;;4.88;1.65;;;15.00;96.40;;;;;;5034189;28;20120;-70
2021/08/27 04:34:26;;;;;;;6.35;1.80;;;15.00;96.50;;;;;;5033500;28;20029;-70
2021/08/27 04:36:52;;;;;;;6.45;1.38;;;14.90;96.50;;;;;;5033500;28;20037;-71
2021/08/27 04:39:17;;;;;;;7.70;2.00;;;15.00;96.60;;;;;;5033341;28;20082;-70
2021/08/27 04:41:43;;;;;;;5.10;1.63;;;15.00;96.50;;;;;;5033427;28;20032;-70
2021/08/27 04:44:08;;;;;;;3.58;1.35;;;15.00;96.50;;;;;;5032823;28;20021;-69
2021/08/27 04:46:34;;;;;;;13.50;1.70;;;15.00;96.50;;;;;;5033255;28;20029;-69
2021/08/27 04:49:00;;;;;;;7.38;1.85;;;15.00;96.50;;;;;;5033238;28;20529;-71
2021/08/27 04:51:25;;;;;;;8.45;1.45;;;15.10;96.50;;;;;;5033155;28;20042;-70
2021/08/27 04:53:51;;;;;;;9.00;2.00;;;15.10;96.40;;;;;;5033156;28;20033;-69
2021/08/27 04:56:17;;;;;;;4.65;1.77;;;15.00;96.40;;;;;;5033385;28;20630;-71
2021/08/27 04:58:43;;;;;;;12.23;2.72;;;14.90;96.50;;;;;;5032778;28;20072;-70
2021/08/27 05:01:09;;;;;;;8.43;1.90;;;15.00;96.60;;;;;;5032931;28;20037;-70
2021/08/27 05:03:35;;;;;;;3.85;2.00;;;15.10;96.60;;;;;;5031797;28;20041;-70
2021/08/27 05:06:01;;;;;;;6.40;1.63;;;15.10;96.50;;;;;;5033065;28;20033;-71
2021/08/27 05:08:26;;;;;;;7.40;1.90;;;15.10;96.60;;;;;;5032833;28;20087;-70
2021/08/27 05:10:52;;;;;;;7.78;2.95;;;15.10;96.70;;;;;;5033090;28;20125;-70
2021/08/27 05:13:18;;;;;;;7.85;2.47;;;15.10;96.90;;;;;;5032732;28;20034;-71
2021/08/27 05:15:44;;;;;;;9.68;2.08;;;15.10;96.90;;;;;;5032698;28;20030;-70
2021/08/27 05:18:10;;;;;;;7.40;1.80;;;15.00;96.90;;;;;;5032813;28;20042;-69
2021/08/27 05:20:35;;;;;;;7.88;2.03;;;15.00;97.00;;;;;;5032738;28;20115;-69
2021/08/27 05:23:02;;;;;;;7.90;2.13;;;15.10;97.10;;;;;;5033045;28;20010;-70
2021/08/27 05:25:28;;;;;;;9.93;2.13;;;15.20;97.00;;;;;;5032340;28;20091;-71
2021/08/27 05:27:53;;;;;;;6.25;1.70;;;15.10;97.00;;;;;;5031396;28;20038;-71
2021/08/27 05:30:19;;;;;;;7.25;2.65;;;15.20;97.10;;;;;;5032520;28;20052;-71
2021/08/27 05:32:46;;;;;;;7.55;1.80;;;15.20;97.10;;;;;;5032491;28;20108;-71
2021/08/27 05:35:12;;;;;;;10.35;2.10;;;15.20;97.20;;;;;;5032570;28;20100;-72
2021/08/27 05:37:38;;;;;;;6.22;2.10;;;15.20;97.30;;;;;;5032243;28;20044;-71
2021/08/27 05:40:05;;;;;;;7.30;2.00;;;15.20;97.50;;;;;;5031197;28;20356;-70
2021/08/27 05:42:31;;;;;;;7.00;1.93;;;15.20;97.50;;;;;;5032281;28;20489;-70
2021/08/27 05:44:56;;;;;;;9.13;2.40;;;15.20;97.60;;;;;;5031988;28;20048;-70
2021/08/27 05:47:22;;;;;;;11.45;1.98;;;15.20;97.60;;;;;;5031989;28;20048;-71
2021/08/27 05:49:47;;;;;;;7.82;2.45;;;15.20;97.60;;;;;;5032250;28;20029;-70
2021/08/27 05:52:13;;;;;;;10.50;2.00;;;15.30;97.60;;;;;;5031967;28;20482;-70
2021/08/27 05:54:39;;;;;;;6.70;2.05;;;15.30;97.80;;;;;;5032023;28;20034;-71
2021/08/27 05:57:04;;;;;;;9.63;2.20;;;15.30;98.10;;;;;;5031812;28;20130;-71
2021/08/27 05:59:30;;;;;;;9.57;1.80;;;15.30;98.20;;;;;;5031859;28;20030;-72
2021/08/27 06:01:55;;;;;;;6.78;1.90;;;15.40;98.00;;;;;;5031304;28;20025;-70
2021/08/27 06:04:21;;;;;;;16.17;3.05;;;15.40;98.20;;;;;;5031676;28;20045;-71
2021/08/27 06:06:48;;;;;;;7.30;2.20;;;15.50;98.20;;;;;;5031482;28;20055;-71
2021/08/27 06:09:14;;;;;;;5.07;2.00;;;15.50;98.20;;;;;;5031742;28;20072;-72
2021/08/27 06:11:40;;;;;;;7.18;2.13;;;15.50;98.10;;;;;;5030604;28;20052;-70
2021/08/27 06:14:07;;;;;;;12.77;1.90;;;15.60;98.20;;;;;;5032009;28;20036;-71
2021/08/27 06:16:34;;;;;;;6.60;1.93;;;15.60;98.20;;;;;;5030636;28;20126;-72
2021/08/27 06:19:03;;;;;;;10.43;2.35;;;15.60;98.20;;;;;;5030604;28;20259;-72
2021/08/27 06:21:32;;;;;;;6.15;2.13;;;15.70;98.10;;;;;;5031644;28;20037;-72
2021/08/27 06:23:57;;;;;;;9.90;2.20;;;15.60;98.40;;;;;;5031369;28;20375;-73
2021/08/27 06:26:23;;;;;;;9.23;2.47;;;15.60;98.40;;;;;;5031259;28;20017;-76
2021/08/27 06:28:49;;;;;;;6.93;2.10;;;15.60;98.30;;;;;;5032172;28;20060;-73
2021/08/27 06:31:14;;;;;;;14.98;3.05;;;15.60;98.20;;;;;;5031427;28;20043;-76
2021/08/27 06:33:40;;;;;;;7.88;2.28;;;15.70;98.40;;;;;;5031268;28;20087;-74
2021/08/27 06:36:10;;;;;;;13.07;1.83;;;15.60;98.40;;;;;;5030799;28;20085;-75
2021/08/27 06:38:35;;;;;;;9.70;2.40;;;15.60;98.40;;;;;;5030047;28;20518;-74
2021/08/27 06:41:04;;;;;;;15.02;1.85;;;15.60;98.50;;;;;;5031381;28;20025;-74
2021/08/27 06:43:34;;;;;;;12.52;2.00;;;15.60;98.50;;;;;;5030920;28;20045;-71
2021/08/27 06:46:03;;;;;;;4.72;1.80;;;15.60;98.40;;;;;;5030933;28;20493;-73
2021/08/27 06:48:29;;;;;;;6.43;1.95;;;15.70;98.30;;;;;;5029511;28;20029;-72
2021/08/27 06:50:55;;;;;;;10.30;2.30;;;15.70;98.20;;;;;;5030790;28;20141;-74
2021/08/27 06:53:21;;;;;;;6.32;2.00;;;15.70;98.20;;;;;;5030875;28;20400;-75
2021/08/27 06:55:47;;;;;;;5.38;2.25;;;15.70;98.10;;;;;;5031388;28;20021;-75
2021/08/27 06:58:12;;;;;;;8.80;2.05;;;15.70;98.10;;;;;;5030362;28;20045;-74
2021/08/27 07:00:38;;;;;;;8.38;2.70;;;15.70;98.20;;;;;;5030657;28;20079;-72
2021/08/27 07:03:04;;;;;;;12.15;2.10;;;15.80;98.60;;;;;;5030659;28;20038;-72
2021/08/27 07:05:30;;;;;;;7.82;2.42;;;15.80;99.00;;;;;;5030794;28;20049;-71
2021/08/27 07:07:56;;;;;;;5.45;1.83;;;15.80;99.30;;;;;;5029863;28;20063;-75
2021/08/27 07:10:22;;;;;;;7.00;2.25;;;15.80;99.20;;;;;;5030726;28;20046;-75
2021/08/27 07:12:48;;;;;;;4.72;1.98;;;15.80;99.30;;;;;;5029676;28;20094;-75
2021/08/27 07:15:14;;;;;;;8.07;2.30;;;15.90;99.00;;;;;;5030679;28;20037;-75
2021/08/27 07:17:41;;;;;;;5.40;1.83;;;15.90;99.30;;;;;;5030748;28;20099;-74
2021/08/27 07:20:07;;;;;;;6.35;2.50;;;15.80;99.30;;;;;;5031021;28;20060;-75
2021/08/27 07:22:34;;;;;;;7.40;2.55;;;15.80;99.70;;;;;;5029479;28;20128;-74
2021/08/27 07:25:03;;;;;;;9.02;2.35;;;15.80;99.90;;;;;;5030889;28;20034;-76
2021/08/27 07:27:29;;;;;;;3.30;2.05;;;15.70;99.90;;;;;;5030848;28;20037;-73
2021/08/27 07:29:54;;;;;;;9.68;3.05;;;15.70;99.90;;;;;;5030518;28;20597;-73
2021/08/27 07:32:20;;;;;;;8.45;2.55;;;15.60;99.90;;;;;;5031506;28;20511;-73
2021/08/27 07:34:46;;;;;;;7.75;2.60;;;15.60;99.90;;;;;;5030564;28;20041;-70
2021/08/27 07:37:13;;;;;;;10.93;2.00;;;15.70;99.90;;;;;;5030705;28;20136;-70
2021/08/27 07:39:39;;;;;;;5.28;2.25;;;15.60;99.90;;;;;;5031155;28;20030;-72
2021/08/27 07:42:06;;;;;;;7.10;2.38;;;15.60;99.90;;;;;;5030806;28;20037;-73
2021/08/27 07:44:32;;;;;;;8.68;1.90;;;15.50;99.90;;;;;;5030212;28;20021;-70
2021/08/27 07:46:58;;;;;;;9.18;2.67;;;15.40;99.90;;;;;;5030809;28;20025;-74
2021/08/27 07:49:24;;;;;;;8.88;2.72;;;15.50;99.90;;;;;;5032634;28;20213;-72
2021/08/27 07:51:51;;;;;;;7.25;2.25;;;15.50;99.90;;;;;;5034235;28;20124;-73
2021/08/27 07:54:17;;;;;;;13.18;2.83;;;15.50;99.90;;;;;;5034468;28;20061;-75
2021/08/27 07:56:43;;;;;;;7.10;2.92;;;15.50;99.90;;;;;;5033223;28;20052;-74
2021/08/27 07:59:09;;;;;;;10.27;2.78;;;15.50;99.90;;;;;;5034470;28;20130;-74
2021/08/27 08:01:35;;;;;;;8.60;2.65;;;15.60;99.90;;;;;;5034271;28;20463;-74
2021/08/27 08:04:02;;;;;;;8.20;3.05;;;15.60;99.90;;;;;;5033862;28;20092;-74
2021/08/27 08:06:28;;;;;;;9.55;2.45;;;15.50;99.90;;;;;;5033795;28;20037;-73
2021/08/27 08:08:54;;;;;;;6.55;2.85;;;15.40;99.90;;;;;;5032655;28;20030;-72
2021/08/27 08:11:19;;;;;;;4.50;2.20;;;15.40;99.90;;;;;;5034227;28;20033;-72
2021/08/27 08:13:45;;;;;;;6.40;2.55;;;15.40;99.90;;;;;;5033831;28;20120;-71
2021/08/27 08:16:12;;;;;;;9.57;2.50;;;15.40;99.90;;;;;;5033697;28;20041;-73
2021/08/27 08:18:37;;;;;;;7.63;2.50;;;15.30;99.90;;;;;;5033607;28;20037;-73
2021/08/27 08:21:04;;;;;;;4.75;2.35;;;15.40;99.90;;;;;;5033821;28;20099;-74
2021/08/27 08:23:30;;;;;;;10.93;4.30;;;15.50;99.90;;;;;;5033133;28;20428;-71
2021/08/27 08:25:56;;;;;;;15.63;5.10;;;15.40;99.90;;;;;;5033851;28;20087;-70
2021/08/27 08:28:21;;;;;;;6.15;2.58;;;15.30;99.90;;;;;;5033228;28;20026;-73
2021/08/27 08:30:49;;;;;;;11.50;2.80;;;15.40;99.90;;;;;;5033458;28;20026;-72
2021/08/27 08:33:14;;;;;;;8.85;2.42;;;15.40;99.90;;;;;;5033440;28;20140;-73
2021/08/27 08:35:40;;;;;;;9.27;2.53;;;15.40;99.90;;;;;;5032104;28;20116;-72
2021/08/27 08:38:06;;;;;;;5.00;1.90;;;15.50;99.90;;;;;;5033779;28;20083;-70
2021/08/27 08:40:37;;;;;;;6.13;2.47;;;15.50;99.90;;;;;;5032922;28;20356;-71
2021/08/27 08:43:02;;;;;;;6.35;2.25;;;15.50;99.90;;;;;;5033323;28;20025;-72
2021/08/27 08:45:28;;;;;;;3.78;2.08;;;15.50;99.90;;;;;;5032030;28;20044;-72
2021/08/27 08:47:54;;;;;;;9.70;2.75;;;15.40;99.90;;;;;;5033111;28;20124;-71
2021/08/27 08:50:21;;;;;;;6.85;2.10;;;15.30;99.90;;;;;;5033541;28;20033;-73
2021/08/27 08:52:48;;;;;;;4.53;1.70;;;15.40;99.90;;;;;;5013277;28;20048;-71
2021/08/27 08:55:14;;;;;;;6.57;2.10;;;15.50;99.90;;;;;;5012023;28;20366;-71
2021/08/27 08:57:39;;;;;;;6.22;1.80;;;15.50;99.90;;;;;;5011899;28;20053;-74
2021/08/27 09:00:06;;;;;;;3.17;1.83;;;15.60;99.90;;;;;;5011363;28;20132;-74
2021/08/27 09:02:32;;;;;;;4.43;1.50;;;15.60;99.90;;;;;;5013024;28;20083;-73
2021/08/27 09:04:57;;;;;;;7.72;1.80;;;15.60;99.90;;;;;;5013425;28;20458;-73
2021/08/27 09:07:23;;;;;;;3.83;1.50;;;15.60;99.90;;;;;;5012016;28;20536;-73
2021/08/27 09:09:48;;;;;;;5.90;1.95;;;15.80;99.90;;;;;;5013075;28;20033;-73
2021/08/27 09:12:27;;;;;;;4.00;1.63;;;15.80;99.90;;;;;;5012783;28;20038;-73
2021/08/27 09:15:11;;;;;;;4.05;1.58;;;15.80;99.90;;;;;;5012940;28;20030;-72
2021/08/27 09:17:41;;;;;;;4.60;1.50;;;15.80;99.90;;;;;;5013211;28;20105;-73
2021/08/27 09:20:10;;;;;;;3.45;1.45;;;15.90;99.90;;;;;;5013295;28;20089;-72
2021/08/27 09:22:53;;;;;;;4.25;1.40;;;15.80;99.90;;;;;;5012872;28;20113;-72
2021/08/27 09:25:24;;;;;;;4.55;1.23;;;15.90;99.90;;;;;;5012573;28;20030;-71
2021/08/27 09:28:09;;;;;;;9.98;1.80;;;16.00;99.90;;;;;;5012462;28;20116;-72
2021/08/27 09:30:39;;;;;;;6.63;1.50;;;16.10;99.90;;;;;;5012725;28;20456;-73
2021/08/27 09:33:13;;;;;;;7.00;1.67;;;16.00;99.90;;;;;;5011413;28;20300;-71
2021/08/27 09:35:39;;;;;;;3.15;1.75;;;16.00;99.90;;;;;;5012871;28;20356;-72
2021/08/27 09:38:14;;;;;;;6.47;1.88;;;16.10;99.90;;;;;;5012918;28;20164;-72
2021/08/27 09:40:39;;;;;;;3.45;1.63;;;16.00;99.90;;;;;;5012547;28;20052;-72
2021/08/27 09:43:06;;;;;;;4.38;1.70;;;16.10;99.90;;;;;;5011178;28;20038;-73
2021/08/27 09:45:35;;;;;;;8.13;3.33;;;16.20;99.90;;;;;;5011967;28;20113;-73
2021/08/27 09:48:12;;;;;;;6.90;2.72;;;16.10;99.90;;;;;;5012142;28;20104;-71
2021/08/27 09:50:40;;;;;;;6.13;2.05;;;16.10;99.90;;;;;;5012010;28;20117;-70
2021/08/27 09:53:08;;;;;;;3.45;1.55;;;16.00;99.90;;;;;;5012484;28;20037;-74
2021/08/27 09:55:36;;;;;;;3.42;1.65;;;16.10;99.90;;;;;;5011150;28;20069;-73
2021/08/27 09:58:08;;;;;;;;;;;16.10;99.90;;;;;;5011632;28;20049;-75
2021/08/27 10:00:36;;;;;;;5.10;1.88;;;16.20;99.90;;;;;;5011964;28;19945;-74
2021/08/27 10:03:22;;;;;;;15.38;9.10;;;16.30;99.90;;;;;;5011945;28;20148;-74
2021/08/27 10:05:49;;;;;;;5.22;3.20;;;16.30;99.90;;;;;;5012106;28;20034;-75
2021/08/27 10:08:21;;;;;;;5.53;2.20;;;16.30;99.90;;;;;;5012602;28;20388;-71
2021/08/27 10:10:50;;;;;;;6.75;2.28;;;16.30;99.90;;;;;;5031028;28;20037;-72
2021/08/27 10:13:15;;;;;;;4.63;2.40;;;16.30;99.90;;;;;;5031503;28;20033;-71
2021/08/27 10:15:41;;;;;;;6.63;2.28;;;16.40;99.90;;;;;;5031492;28;20317;-73
2021/08/27 10:18:09;;;;;;;3.90;1.95;;;16.40;99.90;;;;;;5031539;28;20030;-74
2021/08/27 10:20:40;;;;;;;4.57;1.88;;;16.40;99.90;;;;;;5030582;28;20029;-74
2021/08/27 10:23:12;;;;;;;22.17;11.25;;;16.50;99.90;;;;;;5030537;28;20020;-73
2021/08/27 10:25:43;;;;;;;9.90;4.13;;;16.40;99.90;;;;;;5031000;28;20037;-75
2021/08/27 10:28:09;;;;;;;6.13;2.20;;;16.50;99.90;;;;;;5030408;28;20040;-74
2021/08/27 10:31:04;;;;;;;4.15;2.03;;;16.60;99.90;;;;;;5031266;28;20049;-75
2021/08/27 10:33:42;;;;;;;7.30;2.88;;;16.60;99.90;;;;;;5030375;28;20371;-71
2021/08/27 10:36:08;;;;;;;3.20;1.88;;;16.70;99.90;;;;;;5030883;28;20510;-72
2021/08/27 10:38:42;;;;;;;4.25;2.30;;;16.80;99.90;;;;;;5031026;28;20387;-71
2021/08/27 10:41:16;;;;;;;6.38;2.22;;;16.80;99.90;;;;;;5031182;28;20036;-72
2021/08/27 10:44:11;;;;;;;6.80;1.50;;;16.80;99.90;;;;;;5030814;28;20040;-72
2021/08/27 10:46:48;;;;;;;20.60;6.97;;;16.80;99.90;;;;;;5046368;28;20094;-73
2021/08/27 10:49:21;;;;;;;7.30;2.60;;;16.80;99.90;;;;;;5046213;28;20057;-74
2021/08/27 10:51:50;;;;;;;4.75;1.33;;;16.90;99.90;;;;;;5030663;28;20041;-72
2021/08/27 10:54:17;;;;;;;4.20;2.13;;;17.00;99.90;;;;;;5030900;28;20083;-70
2021/08/27 10:56:52;;;;;;;5.30;2.20;;;17.00;99.90;;;;;;5031466;28;20021;-70
2021/08/27 10:59:20;;;;;;;1.88;1.33;;;16.90;99.90;;;;;;5030993;28;20309;-71
2021/08/27 11:01:47;;;;;;;5.35;1.58;;;17.00;99.90;;;;;;5030556;28;20403;-70
2021/08/27 11:04:24;;;;;;;3.38;1.88;;;17.10;99.90;;;;;;5030515;28;20034;-74
2021/08/27 11:06:53;;;;;;;4.30;2.07;;;17.20;99.90;;;;;;5030721;28;20045;-73
2021/08/27 11:09:24;;;;;;;4.25;1.88;;;17.30;99.90;;;;;;5030693;28;20263;-74
2021/08/27 11:12:11;;;;;;;2.92;1.63;;;17.30;99.90;;;;;;5030630;28;20029;-72
2021/08/27 11:14:45;;;;;;;3.20;1.65;;;17.20;99.90;;;;;;5030677;28;20022;-74
2021/08/27 11:17:12;;;;;;;5.28;2.17;;;17.20;99.90;;;;;;5031100;28;20037;-74
2021/08/27 11:19:56;;;;;;;2.80;1.73;;;17.20;99.90;;;;;;5030678;28;20094;-71
2021/08/27 11:22:30;;;;;;;4.03;2.10;;;17.20;99.90;;;;;;5032312;28;20529;-74
2021/08/27 11:25:07;;;;;;;3.05;2.00;;;17.30;99.90;;;;;;5034515;28;20037;-73
2021/08/27 11:27:33;;;;;;;3.05;1.60;;;17.30;99.90;;;;;;5034691;28;20044;-76
2021/08/27 11:30:28;;;;;;;4.47;2.17;;;17.40;99.90;;;;;;5034589;28;20040;-72
2021/08/27 11:32:55;;;;;;;3.78;1.98;;;17.40;99.90;;;;;;5034352;28;20057;-74
2021/08/27 11:35:22;;;;;;;37.63;24.25;;;17.50;99.90;;;;;;5035069;28;20022;-73
2021/08/27 11:38:04;;;;;;;4.13;2.85;;;17.40;99.90;;;;;;5034905;28;20014;-72
2021/08/27 11:40:30;;;;;;;5.57;2.17;;;17.40;99.90;;;;;;5034195;28;20037;-72
2021/08/27 11:42:56;;;;;;;4.78;2.58;;;17.50;99.90;;;;;;5034199;28;20520;-72
2021/08/27 11:45:26;;;;;;;8.10;3.97;;;17.60;99.90;;;;;;5034486;28;20601;-73
2021/08/27 11:47:52;;;;;;;5.65;3.42;;;17.70;99.90;;;;;;5034159;28;20048;-73
2021/08/27 11:50:22;;;;;;;15.60;9.07;;;17.80;99.90;;;;;;5034675;28;20037;-72
2021/08/27 11:52:49;;;;;;;3.13;2.25;;;17.90;99.90;;;;;;5034231;28;20044;-73
2021/08/27 11:55:16;;;;;;;2.78;1.75;;;18.10;99.90;;;;;;5034136;28;20040;-72
2021/08/27 11:57:55;;;;;;;4.07;2.00;;;18.20;99.90;;;;;;5033675;28;20065;-71
2021/08/27 12:00:43;;;;;;;5.82;2.22;;;18.50;99.90;;;;;;5033737;28;20111;-74
2021/08/27 12:03:11;;;;;;;7.72;2.30;;;18.50;99.50;;;;;;5033977;28;20041;-74
2021/08/27 12:05:38;;;;;;;;;;;18.70;99.80;;;;;;5034181;28;20251;-72
2021/08/27 12:08:03;;;;;;;3.13;2.03;;;18.80;99.50;;;;;;5034499;28;19967;-71
2021/08/27 12:10:40;;;;;;;4.40;2.10;;;18.80;99.40;;;;;;5033676;28;20037;-73
2021/08/27 12:13:11;;;;;;;4.82;1.92;;;19.00;99.40;;;;;;5033805;28;20393;-76
2021/08/27 12:15:40;;;;;;;6.05;2.03;;;19.00;99.00;;;;;;5033745;28;20037;-75
2021/08/27 12:18:15;;;;;;;1.70;1.40;;;19.20;99.00;;;;;;5033655;28;20120;-76
2021/08/27 12:20:46;;;;;;;2.63;1.90;;;19.20;98.80;;;;;;5033582;28;20110;-77
2021/08/27 12:23:16;;;;;;;3.40;1.67;;;19.30;98.50;;;;;;5034133;28;20085;-74
2021/08/27 12:25:45;;;;;;;2.72;1.63;;;19.40;98.50;;;;;;5033590;28;20399;-72
2021/08/27 12:28:14;;;;;;;2.97;1.70;;;19.50;98.20;;;;;;5033752;28;20117;-73
2021/08/27 12:30:44;;;;;;;4.88;2.10;;;19.40;98.70;;;;;;5033585;28;20084;-75
2021/08/27 12:33:09;;;;;;;3.70;1.75;;;19.50;98.30;;;;;;5032823;28;20091;-75
2021/08/27 12:35:35;;;;;;;5.15;2.17;;;19.70;98.30;;;;;;5032975;28;20033;-75
2021/08/27 12:38:02;;;;;;;6.22;2.03;;;19.90;98.20;;;;;;5033782;28;20025;-77
2021/08/27 12:40:29;;;;;;;3.55;1.63;;;19.80;98.00;;;;;;5033049;28;20283;-76
2021/08/27 12:42:59;;;;;;;6.13;1.75;;;20.00;97.40;;;;;;5048974;28;20476;-75
2021/08/27 12:45:28;;;;;;;2.63;1.40;;;20.00;97.70;;;;;;5033238;28;20678;-75
2021/08/27 12:48:05;;;;;;;2.28;1.20;;;20.10;97.30;;;;;;5033172;28;20099;-74
2021/08/27 12:50:31;;;;;;;1.70;1.02;;;20.10;96.90;;;;;;5033090;28;20280;-72
2021/08/27 12:53:03;;;;;;;3.63;1.60;;;19.70;96.80;;;;;;5033479;28;20074;-74